createdAt,value
2022-11-09T00:01:04.134Z,96.99
2022-11-09T00:03:31.899Z,98.67
2022-11-09T00:06:00.813Z,97.49
2022-11-09T00:08:28.790Z,97.95
2022-11-09T00:10:57.129Z,97.57
2022-11-09T00:13:24.762Z,97.45
2022-11-09T00:15:52.510Z,97.16
2022-11-09T00:18:20.191Z,97.06
2022-11-09T00:20:48.559Z,96.89
2022-11-09T00:23:18.063Z,97.50
2022-11-09T00:25:46.242Z,98.68
2022-11-09T00:28:13.873Z,98.93
2022-11-09T00:30:42.623Z,98.08
2022-11-09T00:33:12.313Z,97.84
2022-11-09T00:35:40.725Z,98.03
2022-11-09T00:38:08.434Z,97.75
2022-11-09T00:40:36.202Z,97.85
2022-11-09T00:43:03.889Z,97.94
2022-11-09T00:45:31.509Z,97.80
2022-11-09T00:47:59.147Z,97.68
2022-11-09T00:50:26.853Z,97.27
2022-11-09T00:52:54.472Z,97.29
2022-11-09T00:55:25.547Z,97.46
2022-11-09T00:57:53.738Z,97.40
2022-11-09T01:00:24.521Z,96.84
2022-11-09T01:02:52.369Z,97.10
2022-11-09T01:05:20.934Z,96.63
2022-11-09T01:07:48.590Z,96.65
2022-11-09T01:10:16.241Z,96.47
2022-11-09T01:12:44.005Z,97.49
2022-11-09T01:15:11.843Z,97.04
2022-11-09T01:17:39.481Z,97.05
2022-11-09T01:20:07.635Z,96.91
2022-11-09T01:22:35.243Z,97.19
2022-11-09T01:25:02.904Z,96.77
2022-11-09T01:27:30.522Z,96.79
2022-11-09T01:29:58.173Z,96.76
2022-11-09T01:32:25.878Z,96.72
2022-11-09T01:34:53.947Z,96.70
2022-11-09T01:37:21.626Z,97.11
2022-11-09T01:39:49.242Z,96.50
2022-11-09T01:42:24.245Z,96.42
2022-11-09T01:45:30.786Z,96.66
2022-11-09T01:48:01.072Z,96.69
2022-11-09T01:50:53.907Z,96.56
2022-11-09T01:53:28.752Z,96.98
2022-11-09T01:55:59.753Z,96.57
2022-11-09T01:58:32.574Z,96.57
2022-11-09T02:01:01.923Z,96.49
2022-11-09T02:03:34.784Z,97.01
2022-11-09T02:06:07.641Z,96.95
2022-11-09T02:08:35.645Z,96.57
2022-11-09T02:11:15.091Z,96.69
2022-11-09T02:13:50.293Z,96.60
2022-11-09T02:16:19.556Z,97.11
2022-11-09T02:18:53.071Z,96.82
2022-11-09T02:21:22.494Z,96.86
2022-11-09T02:23:51.427Z,96.97
2022-11-09T02:26:41.130Z,97.62
2022-11-09T02:29:11.365Z,97.66
2022-11-09T02:31:44.404Z,98.25
2022-11-09T02:34:15.474Z,97.78
2022-11-09T02:36:44.711Z,97.57
2022-11-09T02:39:14.619Z,97.39
2022-11-09T02:41:52.776Z,98.04
2022-11-09T02:44:21.069Z,97.60
2022-11-09T02:46:48.934Z,97.53
2022-11-09T02:49:16.593Z,97.09
2022-11-09T02:51:44.259Z,97.04
2022-11-09T02:54:11.959Z,97.25
2022-11-09T02:56:39.581Z,97.23
2022-11-09T02:59:07.193Z,97.03
2022-11-09T03:01:34.909Z,96.95
2022-11-09T03:04:02.686Z,96.69
2022-11-09T03:06:36.318Z,96.55
2022-11-09T03:09:10.905Z,96.43
2022-11-09T03:11:39.938Z,96.43
2022-11-09T03:14:07.770Z,96.36
2022-11-09T03:16:35.418Z,96.67
2022-11-09T03:19:03.175Z,96.46
2022-11-09T03:21:30.859Z,96.21
2022-11-09T03:23:58.699Z,96.04
2022-11-09T03:26:26.380Z,96.35
2022-11-09T03:28:53.965Z,96.19
2022-11-09T03:31:21.600Z,95.98
2022-11-09T03:33:49.234Z,95.94
2022-11-09T03:36:17.202Z,96.24
2022-11-09T03:38:44.800Z,95.99
2022-11-09T03:41:12.405Z,96.42
2022-11-09T03:43:40.015Z,96.35
2022-11-09T03:46:07.612Z,96.53
2022-11-09T03:48:35.258Z,96.29
2022-11-09T03:51:02.938Z,96.39
2022-11-09T03:53:30.559Z,96.38
2022-11-09T03:55:58.972Z,97.26
2022-11-09T03:58:26.553Z,96.82
2022-11-09T04:00:54.192Z,96.97
2022-11-09T04:03:22.033Z,97.04
2022-11-09T04:05:49.937Z,97.03
2022-11-09T04:08:17.697Z,96.77
2022-11-09T04:10:45.513Z,96.96
2022-11-09T04:13:13.136Z,96.86
2022-11-09T04:15:40.766Z,97.03
2022-11-09T04:18:08.406Z,96.94
2022-11-09T04:20:35.990Z,96.94
2022-11-09T04:23:05.929Z,97.42
2022-11-09T04:25:36.061Z,97.49
2022-11-09T04:28:05.561Z,97.41
2022-11-09T04:30:36.032Z,98.33
2022-11-09T04:33:04.325Z,97.81
2022-11-09T04:35:34.422Z,97.86
2022-11-09T04:38:05.703Z,97.58
2022-11-09T04:40:35.579Z,97.47
2022-11-09T04:43:05.950Z,98.05
2022-11-09T04:45:35.400Z,97.90
2022-11-09T04:48:05.689Z,97.95
2022-11-09T04:50:34.164Z,97.99
2022-11-09T04:53:16.500Z,98.04
2022-11-09T04:55:44.482Z,98.21
2022-11-09T04:58:12.238Z,98.43
2022-11-09T05:00:40.176Z,98.71
2022-11-09T05:03:08.780Z,98.66
2022-11-09T05:05:38.176Z,98.28
2022-11-09T05:08:06.692Z,98.29
2022-11-09T05:10:35.184Z,98.45
2022-11-09T05:13:08.516Z,98.48
2022-11-09T05:15:36.990Z,98.68
2022-11-09T05:18:05.921Z,98.30
2022-11-09T05:20:34.085Z,98.21
2022-11-09T05:23:20.967Z,97.95
2022-11-09T05:25:49.018Z,97.83
2022-11-09T05:28:16.679Z,97.81
2022-11-09T05:30:44.318Z,97.70
2022-11-09T05:33:11.929Z,97.57
2022-11-09T05:35:39.544Z,97.43
2022-11-09T05:38:07.182Z,97.41
2022-11-09T05:40:35.132Z,97.17
2022-11-09T05:43:02.782Z,97.00
2022-11-09T05:45:45.724Z,96.86
2022-11-09T05:48:17.944Z,97.00
2022-11-09T05:50:45.796Z,96.95
2022-11-09T05:53:13.941Z,96.93
2022-11-09T05:55:41.773Z,97.11
2022-11-09T05:58:10.295Z,96.93
2022-11-09T06:00:38.430Z,96.95
2022-11-09T06:03:08.767Z,96.86
2022-11-09T06:05:41.903Z,96.77
2022-11-09T06:08:12.491Z,96.78
2022-11-09T06:10:40.829Z,97.13
2022-11-09T06:13:09.005Z,97.32
2022-11-09T06:15:36.664Z,97.14
2022-11-09T06:18:04.415Z,97.30
2022-11-09T06:20:32.449Z,97.29
2022-11-09T06:23:04.177Z,97.45
2022-11-09T06:25:33.969Z,97.36
2022-11-09T06:28:02.140Z,97.30
2022-11-09T06:30:30.043Z,97.38
2022-11-09T06:33:04.325Z,97.18
2022-11-09T06:35:31.929Z,97.31
2022-11-09T06:38:01.310Z,97.55
2022-11-09T06:40:29.776Z,97.75
2022-11-09T06:43:01.452Z,97.81
2022-11-09T06:45:30.395Z,97.89
2022-11-09T06:47:59.539Z,98.39
2022-11-09T06:50:28.971Z,98.04
2022-11-09T06:52:58.930Z,98.09
2022-11-09T06:55:28.429Z,98.17
2022-11-09T06:57:56.652Z,98.76
2022-11-09T07:00:25.514Z,99.02
2022-11-09T07:02:53.345Z,98.44
2022-11-09T07:05:21.636Z,98.54
2022-11-09T07:07:49.248Z,98.71
2022-11-09T07:10:17.485Z,98.91
2022-11-09T07:12:45.247Z,98.98
2022-11-09T07:15:13.573Z,98.78
2022-11-09T07:17:42.347Z,98.77
2022-11-09T07:20:11.530Z,98.76
2022-11-09T07:22:42.938Z,98.98
2022-11-09T07:25:12.179Z,98.60
2022-11-09T07:27:39.854Z,98.80
2022-11-09T07:30:08.544Z,99.17
2022-11-09T07:35:24.887Z,99.48
2022-11-09T07:37:52.520Z,99.33
2022-11-09T07:40:20.702Z,99.14
2022-11-09T07:42:48.354Z,99.11
2022-11-09T07:45:16.080Z,99.26
2022-11-09T07:47:43.759Z,99.19
2022-11-09T07:50:11.563Z,98.93
2022-11-09T07:52:39.128Z,98.96
2022-11-09T07:55:07.380Z,98.95
2022-11-09T07:57:35.025Z,99.06
2022-11-09T08:00:02.684Z,99.03
2022-11-09T08:02:30.350Z,98.93
2022-11-09T08:04:58.007Z,98.85
2022-11-09T08:07:26.005Z,98.67
2022-11-09T08:09:54.300Z,98.31
2022-11-09T08:12:22.343Z,98.32
2022-11-09T08:14:49.975Z,98.43
2022-11-09T08:17:17.707Z,98.54
2022-11-09T08:19:45.401Z,98.43
2022-11-09T08:22:13.000Z,98.87
2022-11-09T08:24:40.653Z,99.18
2022-11-09T08:27:08.315Z,99.51
2022-11-09T08:29:35.959Z,100.00
2022-11-09T08:32:03.646Z,99.77
2022-11-09T08:34:31.310Z,100.00
2022-11-09T08:37:01.913Z,100.00
2022-11-09T08:39:29.547Z,100.00
2022-11-09T08:41:57.362Z,100.00
2022-11-09T08:44:25.018Z,99.94
2022-11-09T08:46:52.733Z,99.73
2022-11-09T08:49:20.332Z,99.76
2022-11-09T08:51:47.977Z,99.74
2022-11-09T08:54:16.201Z,99.43
2022-11-09T08:56:43.852Z,99.43
2022-11-09T08:59:11.518Z,99.31
2022-11-09T09:01:39.283Z,99.03
2022-11-09T09:04:06.917Z,98.73
2022-11-09T09:06:34.607Z,98.51
2022-11-09T09:09:02.343Z,98.17
2022-11-09T09:11:30.111Z,97.94
2022-11-09T09:13:57.752Z,97.83
2022-11-09T09:16:25.427Z,97.55
2022-11-09T09:18:53.221Z,97.30
2022-11-09T09:21:20.913Z,97.24
2022-11-09T09:23:50.434Z,96.85
2022-11-09T09:26:18.676Z,96.91
2022-11-09T09:28:46.340Z,96.55
2022-11-09T09:31:18.243Z,96.53
2022-11-09T09:33:46.600Z,96.26
2022-11-09T09:36:20.064Z,95.94
2022-11-09T09:38:48.090Z,95.72
2022-11-09T09:41:36.268Z,95.91
2022-11-09T09:44:17.561Z,95.52
2022-11-09T09:46:53.656Z,95.37
2022-11-09T09:49:27.300Z,95.06
2022-11-09T09:52:22.424Z,94.96
2022-11-09T09:55:27.174Z,94.47
2022-11-09T09:58:02.078Z,94.65
2022-11-09T10:00:29.775Z,94.25
2022-11-09T10:02:57.537Z,94.39
2022-11-09T10:05:35.032Z,94.24
2022-11-09T10:08:16.603Z,94.02
2022-11-09T10:11:01.782Z,93.58
2022-11-09T10:13:56.435Z,93.53
2022-11-09T10:16:30.197Z,93.37
2022-11-09T10:19:31.633Z,93.26
2022-11-09T10:22:09.584Z,92.83
2022-11-09T10:25:27.905Z,92.40
2022-11-09T10:28:15.582Z,92.27
2022-11-09T10:30:43.493Z,91.67
2022-11-09T10:33:22.469Z,92.21
2022-11-09T10:36:32.083Z,92.13
2022-11-09T10:39:02.423Z,91.91
2022-11-09T10:41:35.644Z,91.71
2022-11-09T10:44:03.385Z,91.63
2022-11-09T10:46:31.029Z,91.84
2022-11-09T10:48:58.743Z,91.45
2022-11-09T10:51:44.057Z,91.14
2022-11-09T10:54:22.767Z,90.21
2022-11-09T10:57:07.212Z,90.71
2022-11-09T10:59:49.807Z,90.61
2022-11-09T11:02:26.494Z,90.49
2022-11-09T11:05:19.624Z,90.30
2022-11-09T11:07:47.666Z,90.32
2022-11-09T11:10:18.145Z,90.45
2022-11-09T11:13:05.979Z,90.16
2022-11-09T11:15:42.496Z,89.94
2022-11-09T11:18:25.526Z,90.01
2022-11-09T11:21:19.773Z,89.88
2022-11-09T11:24:15.509Z,89.84
2022-11-09T11:27:00.995Z,90.20
2022-11-09T11:29:57.166Z,89.50
2022-11-09T11:32:25.165Z,90.10
2022-11-09T11:35:01.377Z,90.28
2022-11-09T11:37:38.868Z,90.03
2022-11-09T11:40:16.477Z,90.02
2022-11-09T11:42:53.278Z,90.25
2022-11-09T11:45:48.874Z,90.11
2022-11-09T11:48:45.909Z,89.32
2022-11-09T11:51:28.227Z,88.53
2022-11-09T11:54:01.888Z,88.58
2022-11-09T11:56:39.462Z,88.62
2022-11-09T12:00:01.300Z,88.58
2022-11-09T12:02:59.363Z,87.95
2022-11-09T12:05:55.813Z,87.62
2022-11-09T12:08:30.003Z,88.26
2022-11-09T12:11:22.935Z,88.24
2022-11-09T12:14:09.402Z,88.28
2022-11-09T12:16:48.430Z,88.20
2022-11-09T12:19:44.072Z,88.11
2022-11-09T12:22:20.634Z,88.18
2022-11-09T12:25:11.327Z,87.81
2022-11-09T12:28:07.447Z,88.02
2022-11-09T12:30:48.802Z,87.69
2022-11-09T12:33:23.268Z,87.99
2022-11-09T12:36:00.504Z,88.14
2022-11-09T12:38:37.722Z,88.18
2022-11-09T12:41:16.614Z,88.28
2022-11-09T12:44:18.070Z,88.08
2022-11-09T12:47:18.409Z,88.59
2022-11-09T12:49:47.812Z,88.83
2022-11-09T12:52:20.474Z,88.93
2022-11-09T12:54:51.643Z,89.11
2022-11-09T12:57:28.741Z,89.14
2022-11-09T13:00:01.316Z,89.35
2022-11-09T13:02:32.865Z,89.73
2022-11-09T13:05:04.081Z,89.78
2022-11-09T13:07:38.921Z,89.64
2022-11-09T13:10:07.236Z,90.01
2022-11-09T13:12:43.816Z,90.13
2022-11-09T13:15:32.091Z,89.94
2022-11-09T13:18:01.433Z,89.73
2022-11-09T13:20:54.865Z,89.87
2022-11-09T13:24:00.193Z,90.07
2022-11-09T13:26:34.254Z,90.30
2022-11-09T13:29:09.708Z,90.17
2022-11-09T13:31:58.965Z,89.93
2022-11-09T13:35:02.144Z,90.26
2022-11-09T13:37:41.841Z,90.51
2022-11-09T13:40:34.587Z,89.59
2022-11-09T13:43:11.161Z,89.77
2022-11-09T13:45:47.658Z,89.88
2022-11-09T13:48:28.924Z,89.94
2022-11-09T13:50:59.498Z,90.31
2022-11-09T13:53:52.149Z,90.39
2022-11-09T13:56:41.100Z,90.10
2022-11-09T13:59:22.768Z,90.42
2022-11-09T14:01:55.043Z,90.42
2022-11-09T14:04:25.678Z,90.62
2022-11-09T14:07:19.419Z,90.99
2022-11-09T14:09:55.716Z,91.09
2022-11-09T14:12:43.221Z,91.12
2022-11-09T14:15:38.149Z,91.22
2022-11-09T14:18:24.754Z,91.02
2022-11-09T14:21:23.016Z,91.33
2022-11-09T14:23:50.912Z,91.61
2022-11-09T14:26:22.289Z,91.60
2022-11-09T14:28:50.091Z,91.83
2022-11-09T14:31:24.211Z,92.13
2022-11-09T14:34:07.062Z,92.25
2022-11-09T14:36:36.137Z,92.84
2022-11-09T14:39:18.205Z,92.93
2022-11-09T14:41:46.189Z,93.49
2022-11-09T14:44:20.202Z,93.47
2022-11-09T14:46:54.350Z,94.03
2022-11-09T14:49:23.927Z,94.22
2022-11-09T14:51:51.888Z,94.12
2022-11-09T14:54:25.312Z,93.95
2022-11-09T14:56:55.556Z,93.75
2022-11-09T14:59:34.109Z,93.72
2022-11-09T15:02:09.014Z,93.97
2022-11-09T15:04:59.967Z,93.98
2022-11-09T15:07:31.272Z,95.02
2022-11-09T15:10:01.687Z,94.51
2022-11-09T15:12:30.986Z,94.59
2022-11-09T15:15:04.926Z,95.46
2022-11-09T15:17:35.686Z,95.48
2022-11-09T15:20:14.671Z,96.07
2022-11-09T15:22:48.033Z,96.52
2022-11-09T15:25:26.643Z,96.88
2022-11-09T15:28:12.771Z,97.83
2022-11-09T15:30:55.532Z,99.10
2022-11-09T15:33:27.693Z,98.99
2022-11-09T15:35:56.880Z,99.24
2022-11-09T15:38:58.697Z,99.37
2022-11-09T15:41:27.350Z,100.00
2022-11-09T15:43:55.049Z,100.00
2022-11-09T15:46:28.487Z,100.00
2022-11-09T15:49:00.431Z,100.00
2022-11-09T15:51:28.338Z,100.00
2022-11-09T15:53:56.041Z,100.00
2022-11-09T15:56:25.454Z,100.00
2022-11-09T15:58:54.558Z,100.00
2022-11-09T16:01:22.224Z,100.00
2022-11-09T16:03:50.000Z,100.00
2022-11-09T16:06:24.607Z,100.00
2022-11-09T16:08:54.318Z,100.00
2022-11-09T16:11:21.957Z,100.00
2022-11-09T16:13:49.581Z,100.00
2022-11-09T16:16:17.280Z,100.00
2022-11-09T16:18:44.965Z,100.00
2022-11-09T16:21:17.959Z,100.00
2022-11-09T16:23:45.657Z,100.00
2022-11-09T16:26:16.352Z,100.00
2022-11-09T16:28:44.745Z,100.00
2022-11-09T16:31:14.517Z,100.00
2022-11-09T16:33:42.281Z,100.00
2022-11-09T16:36:15.974Z,100.00
2022-11-09T16:38:48.779Z,100.00
2022-11-09T16:41:17.598Z,100.00
2022-11-09T16:43:46.804Z,100.00
2022-11-09T16:46:20.941Z,100.00
2022-11-09T16:48:48.846Z,100.00
2022-11-09T16:51:16.552Z,100.00
2022-11-09T16:53:44.226Z,100.00
2022-11-09T16:56:12.046Z,100.00
2022-11-09T16:58:39.656Z,100.00
2022-11-09T17:01:12.539Z,100.00
2022-11-09T17:03:41.493Z,100.00
2022-11-09T17:06:12.258Z,100.00
2022-11-09T17:08:40.805Z,100.00
2022-11-09T17:11:14.192Z,100.00
2022-11-09T17:13:42.453Z,100.00
2022-11-09T17:16:12.891Z,100.00
2022-11-09T17:18:41.662Z,100.00
2022-11-09T17:21:15.322Z,100.00
2022-11-09T17:23:44.119Z,100.00
2022-11-09T17:26:12.092Z,100.00
2022-11-09T17:28:43.174Z,100.00
2022-11-09T17:31:13.882Z,100.00
2022-11-09T17:33:41.609Z,100.00
2022-11-09T17:36:12.360Z,100.00
2022-11-09T17:38:40.521Z,100.00
2022-11-09T17:41:16.817Z,100.00
2022-11-09T17:43:46.176Z,100.00
2022-11-09T17:46:22.022Z,100.00
2022-11-09T17:48:51.033Z,100.00
2022-11-09T17:51:20.444Z,100.00
2022-11-09T17:53:48.477Z,100.00
2022-11-09T17:56:16.192Z,100.00
2022-11-09T17:58:46.599Z,100.00
2022-11-09T18:01:17.699Z,100.00
2022-11-09T18:03:45.518Z,100.00
2022-11-09T18:06:24.465Z,100.00
2022-11-09T18:09:17.767Z,100.00
2022-11-09T18:11:39.730Z,100.00
2022-11-09T18:14:07.977Z,100.00
2022-11-09T18:16:35.696Z,100.00
2022-11-09T18:19:04.424Z,100.00
2022-11-09T18:21:34.398Z,100.00
2022-11-09T18:24:02.102Z,100.00
2022-11-09T18:26:30.321Z,100.00
2022-11-09T18:28:58.518Z,100.00
2022-11-09T18:31:26.201Z,100.00
2022-11-09T18:33:54.343Z,100.00
2022-11-09T18:36:22.636Z,100.00
2022-11-09T18:38:53.027Z,100.00
2022-11-09T18:41:25.410Z,100.00
2022-11-09T18:43:55.048Z,100.00
2022-11-09T18:46:23.140Z,100.00
2022-11-09T18:48:55.273Z,100.00
2022-11-09T18:51:23.240Z,100.00
2022-11-09T18:53:51.213Z,100.00
2022-11-09T18:56:25.672Z,100.00
2022-11-09T18:58:55.811Z,100.00
2022-11-09T19:01:25.900Z,100.00
2022-11-09T19:03:59.241Z,100.00
2022-11-09T19:06:28.039Z,100.00
2022-11-09T19:09:14.831Z,100.00
2022-11-09T19:11:42.548Z,100.00
2022-11-09T19:14:12.388Z,100.00
2022-11-09T19:16:40.216Z,100.00
2022-11-09T19:19:07.939Z,100.00
2022-11-09T19:21:42.429Z,100.00
2022-11-09T19:24:13.807Z,100.00
2022-11-09T19:26:41.633Z,100.00
2022-11-09T19:29:10.876Z,100.00
2022-11-09T19:31:39.542Z,100.00
2022-11-09T19:34:07.175Z,100.00
2022-11-09T19:36:34.904Z,100.00
2022-11-09T19:39:02.621Z,100.00
2022-11-09T19:41:30.458Z,100.00
2022-11-09T19:44:02.297Z,100.00
2022-11-09T19:46:32.179Z,100.00
2022-11-09T19:48:59.995Z,100.00
2022-11-09T19:51:27.733Z,100.00
2022-11-09T19:53:57.427Z,100.00
2022-11-09T19:56:26.910Z,100.00
2022-11-09T19:58:57.841Z,100.00
2022-11-09T20:01:26.035Z,100.00
2022-11-09T20:03:55.566Z,100.00
2022-11-09T20:06:24.986Z,100.00
2022-11-09T20:08:53.290Z,100.00
2022-11-09T20:11:41.298Z,100.00
2022-11-09T20:14:10.836Z,100.00
2022-11-09T20:16:39.607Z,100.00
2022-11-09T20:19:10.446Z,100.00
2022-11-09T20:21:39.153Z,100.00
2022-11-09T20:24:07.596Z,100.00
2022-11-09T20:26:35.208Z,100.00
2022-11-09T20:29:02.850Z,100.00
2022-11-09T20:31:30.450Z,100.00
2022-11-09T20:33:58.291Z,100.00
2022-11-09T20:36:25.950Z,100.00
2022-11-09T20:38:54.179Z,100.00
2022-11-09T20:41:25.376Z,100.00
2022-11-09T20:43:53.658Z,100.00
2022-11-09T20:46:23.746Z,100.00
2022-11-09T20:48:54.682Z,100.00
2022-11-09T20:51:24.263Z,100.00
2022-11-09T20:53:52.321Z,100.00
2022-11-09T20:56:21.354Z,100.00
2022-11-09T20:58:49.182Z,100.00
2022-11-09T21:01:22.393Z,100.00
2022-11-09T21:03:51.947Z,100.00
2022-11-09T21:06:21.144Z,100.00
2022-11-09T21:08:53.729Z,100.00
2022-11-09T21:11:24.791Z,100.00
2022-11-09T21:13:56.611Z,100.00
2022-11-09T21:16:25.037Z,100.00
2022-11-09T21:18:52.703Z,100.00
2022-11-09T21:21:22.944Z,100.00
2022-11-09T21:24:09.216Z,100.00
2022-11-09T21:26:55.769Z,100.00
2022-11-09T21:29:43.970Z,100.00
2022-11-09T21:32:13.178Z,100.00
2022-11-09T21:34:40.929Z,100.00
2022-11-09T21:37:12.523Z,100.00
2022-11-09T21:39:40.180Z,100.00
2022-11-09T21:42:08.581Z,100.00
2022-11-09T21:44:36.405Z,100.00
2022-11-09T21:47:04.589Z,100.00
2022-11-09T21:49:32.994Z,100.00
2022-11-09T21:52:01.168Z,100.00
2022-11-09T21:54:29.613Z,100.00
2022-11-09T21:56:57.896Z,100.00
2022-11-09T21:59:25.728Z,100.00
2022-11-09T22:01:53.993Z,100.00
2022-11-09T22:04:21.836Z,100.00
2022-11-09T22:06:49.594Z,100.00
2022-11-09T22:09:19.353Z,100.00
2022-11-09T22:12:05.702Z,100.00
2022-11-09T22:14:51.917Z,100.00
2022-11-09T22:17:19.566Z,100.00
2022-11-09T22:20:05.875Z,100.00
2022-11-09T22:22:35.032Z,100.00
2022-11-09T22:25:02.845Z,100.00
2022-11-09T22:27:33.856Z,100.00
2022-11-09T22:30:01.512Z,100.00
2022-11-09T22:32:29.292Z,100.00
2022-11-09T22:34:56.951Z,100.00
2022-11-09T22:37:24.615Z,100.00
2022-11-09T22:39:52.271Z,100.00
2022-11-09T22:42:19.896Z,100.00
2022-11-09T22:44:47.549Z,100.00
2022-11-09T22:47:15.167Z,100.00
2022-11-09T22:49:42.842Z,100.00
2022-11-09T22:52:11.382Z,100.00
2022-11-09T22:54:39.122Z,100.00
2022-11-09T22:57:06.839Z,100.00
2022-11-09T22:59:34.481Z,100.00
2022-11-09T23:02:02.196Z,100.00
2022-11-09T23:04:29.880Z,100.00
2022-11-09T23:06:57.663Z,100.00
2022-11-09T23:09:25.321Z,100.00
2022-11-09T23:11:53.192Z,100.00
2022-11-09T23:14:40.845Z,100.00
2022-11-09T23:17:28.472Z,100.00
2022-11-09T23:19:56.114Z,100.00
2022-11-09T23:22:23.795Z,100.00
2022-11-09T23:25:10.222Z,100.00
2022-11-09T23:27:37.867Z,100.00
2022-11-09T23:30:06.064Z,100.00
2022-11-09T23:32:33.723Z,100.00
2022-11-09T23:35:01.359Z,100.00
2022-11-09T23:37:29.032Z,100.00
2022-11-09T23:39:56.653Z,100.00
2022-11-09T23:42:24.290Z,100.00
2022-11-09T23:44:51.880Z,100.00
2022-11-09T23:47:19.618Z,100.00
2022-11-09T23:49:47.253Z,100.00
2022-11-09T23:52:14.883Z,100.00
2022-11-09T23:54:42.659Z,100.00
2022-11-09T23:57:10.304Z,100.00
2022-11-09T23:59:37.970Z,100.00
